sensor_id;sensor_type;location;lat;lon;timestamp;pressure;altitude;pressure_sealevel;temperature;humidity
58367;BME280;57745;42.524;12.052;2023-04-08T00:02:13;96218.69;;;15.53;50.65
58367;BME280;57745;42.524;12.052;2023-04-08T00:04:41;96218.31;;;15.36;51.26
58367;BME280;57745;42.524;12.052;2023-04-08T00:07:06;96213.75;;;15.42;50.99
58367;BME280;57745;42.524;12.052;2023-04-08T00:09:32;96211.81;;;15.34;51.31
58367;BME280;57745;42.524;12.052;2023-04-08T00:11:57;96203.66;;;15.25;51.75
58367;BME280;57745;42.524;12.052;2023-04-08T00:14:23;96212.75;;;15.31;51.69
58367;BME280;57745;42.524;12.052;2023-04-08T00:16:48;96218.72;;;15.20;52.00
58367;BME280;57745;42.524;12.052;2023-04-08T00:19:14;96214.75;;;15.21;51.94
58367;BME280;57745;42.524;12.052;2023-04-08T00:21:39;96200.47;;;15.26;51.96
58367;BME280;57745;42.524;12.052;2023-04-08T00:24:05;96198.72;;;15.05;53.11
58367;BME280;57745;42.524;12.052;2023-04-08T00:26:31;96184.53;;;15.25;52.65
58367;BME280;57745;42.524;12.052;2023-04-08T00:28:57;96180.75;;;15.22;53.07
58367;BME280;57745;42.524;12.052;2023-04-08T00:31:22;96187.72;;;15.23;53.04
58367;BME280;57745;42.524;12.052;2023-04-08T00:33:48;96184.38;;;15.28;53.00
58367;BME280;57745;42.524;12.052;2023-04-08T00:36:13;96182.59;;;15.16;53.02
58367;BME280;57745;42.524;12.052;2023-04-08T00:38:39;96181.28;;;15.35;52.96
58367;BME280;57745;42.524;12.052;2023-04-08T00:41:04;96186.81;;;15.26;53.31
58367;BME280;57745;42.524;12.052;2023-04-08T00:43:30;96179.19;;;15.30;52.85
58367;BME280;57745;42.524;12.052;2023-04-08T00:45:55;96173.50;;;15.10;53.63
58367;BME280;57745;42.524;12.052;2023-04-08T00:48:21;96176.78;;;15.32;52.86
58367;BME280;57745;42.524;12.052;2023-04-08T00:50:46;96174.50;;;15.31;52.65
58367;BME280;57745;42.524;12.052;2023-04-08T00:53:17;96170.34;;;15.35;52.87
58367;BME280;57745;42.524;12.052;2023-04-08T00:55:43;96169.44;;;15.05;53.31
58367;BME280;57745;42.524;12.052;2023-04-08T00:58:08;96157.16;;;15.34;52.75
58367;BME280;57745;42.524;12.052;2023-04-08T01:00:36;96162.50;;;15.28;52.87
58367;BME280;57745;42.524;12.052;2023-04-08T01:03:15;96158.25;;;15.27;53.13
58367;BME280;57745;42.524;12.052;2023-04-08T01:06:14;96167.91;;;15.37;52.40
58367;BME280;57745;42.524;12.052;2023-04-08T01:08:44;96160.53;;;15.29;53.21
58367;BME280;57745;42.524;12.052;2023-04-08T01:11:12;96161.34;;;15.20;53.51
58367;BME280;57745;42.524;12.052;2023-04-08T01:13:40;96156.91;;;15.23;53.31
58367;BME280;57745;42.524;12.052;2023-04-08T01:16:12;96158.22;;;15.03;53.98
58367;BME280;57745;42.524;12.052;2023-04-08T01:18:40;96152.00;;;15.03;54.00
58367;BME280;57745;42.524;12.052;2023-04-08T01:21:06;96140.56;;;15.14;53.82
58367;BME280;57745;42.524;12.052;2023-04-08T01:23:40;96138.69;;;15.29;53.63
58367;BME280;57745;42.524;12.052;2023-04-08T01:26:12;96132.72;;;15.06;54.19
58367;BME280;57745;42.524;12.052;2023-04-08T01:28:46;96142.03;;;15.24;53.56
58367;BME280;57745;42.524;12.052;2023-04-08T01:31:13;96144.66;;;15.18;53.90
58367;BME280;57745;42.524;12.052;2023-04-08T01:33:40;96143.16;;;15.17;53.54
58367;BME280;57745;42.524;12.052;2023-04-08T01:36:07;96140.03;;;15.00;53.62
58367;BME280;57745;42.524;12.052;2023-04-08T01:38:34;96137.13;;;15.04;52.87
58367;BME280;57745;42.524;12.052;2023-04-08T01:40:59;96161.13;;;15.00;52.47
58367;BME280;57745;42.524;12.052;2023-04-08T01:43:26;96165.00;;;14.75;53.03
58367;BME280;57745;42.524;12.052;2023-04-08T01:45:52;96167.69;;;14.93;52.85
58367;BME280;57745;42.524;12.052;2023-04-08T01:48:23;96153.22;;;15.02;52.60
58367;BME280;57745;42.524;12.052;2023-04-08T01:50:48;96135.22;;;14.95;52.32
58367;BME280;57745;42.524;12.052;2023-04-08T01:53:15;96116.88;;;14.87;53.25
58367;BME280;57745;42.524;12.052;2023-04-08T01:55:42;96131.72;;;14.95;52.55
58367;BME280;57745;42.524;12.052;2023-04-08T01:58:11;96180.88;;;14.95;52.61
58367;BME280;57745;42.524;12.052;2023-04-08T02:00:41;96173.69;;;14.64;52.58
58367;BME280;57745;42.524;12.052;2023-04-08T02:03:11;96163.47;;;14.74;52.46
58367;BME280;57745;42.524;12.052;2023-04-08T02:05:36;96156.69;;;14.69;52.97
58367;BME280;57745;42.524;12.052;2023-04-08T02:08:03;96143.75;;;14.79;51.87
58367;BME280;57745;42.524;12.052;2023-04-08T02:10:28;96152.75;;;14.70;52.38
58367;BME280;57745;42.524;12.052;2023-04-08T02:12:54;96140.13;;;14.73;51.92
58367;BME280;57745;42.524;12.052;2023-04-08T02:15:20;96133.78;;;14.67;52.00
58367;BME280;57745;42.524;12.052;2023-04-08T02:17:50;96140.94;;;14.64;52.66
58367;BME280;57745;42.524;12.052;2023-04-08T02:20:27;96146.13;;;14.53;52.00
58367;BME280;57745;42.524;12.052;2023-04-08T02:23:06;96146.13;;;14.53;52.12
58367;BME280;57745;42.524;12.052;2023-04-08T02:25:35;96154.69;;;14.79;51.25
58367;BME280;57745;42.524;12.052;2023-04-08T02:28:03;96174.19;;;14.45;51.92
58367;BME280;57745;42.524;12.052;2023-04-08T02:30:31;96176.72;;;14.48;51.65
58367;BME280;57745;42.524;12.052;2023-04-08T02:33:00;96171.84;;;14.61;51.42
58367;BME280;57745;42.524;12.052;2023-04-08T02:35:27;96180.66;;;14.65;51.85
58367;BME280;57745;42.524;12.052;2023-04-08T02:37:53;96162.34;;;14.57;51.81
58367;BME280;57745;42.524;12.052;2023-04-08T02:40:23;96167.94;;;14.35;51.65
58367;BME280;57745;42.524;12.052;2023-04-08T02:42:49;96175.81;;;14.51;51.45
58367;BME280;57745;42.524;12.052;2023-04-08T02:45:16;96179.00;;;14.50;51.75
58367;BME280;57745;42.524;12.052;2023-04-08T02:47:41;96174.78;;;14.40;51.76
58367;BME280;57745;42.524;12.052;2023-04-08T02:50:07;96174.47;;;14.47;51.79
58367;BME280;57745;42.524;12.052;2023-04-08T02:52:32;96162.75;;;14.64;51.01
58367;BME280;57745;42.524;12.052;2023-04-08T02:54:58;96160.81;;;14.47;51.65
58367;BME280;57745;42.524;12.052;2023-04-08T02:57:23;96163.09;;;14.30;51.95
58367;BME280;57745;42.524;12.052;2023-04-08T02:59:49;96164.63;;;14.31;52.32
58367;BME280;57745;42.524;12.052;2023-04-08T03:02:14;96160.63;;;14.59;51.27
58367;BME280;57745;42.524;12.052;2023-04-08T03:04:40;96165.69;;;14.43;52.05
58367;BME280;57745;42.524;12.052;2023-04-08T03:07:05;96160.81;;;14.47;51.55
58367;BME280;57745;42.524;12.052;2023-04-08T03:09:31;96162.66;;;14.31;51.88
58367;BME280;57745;42.524;12.052;2023-04-08T03:11:56;96165.25;;;14.44;51.92
58367;BME280;57745;42.524;12.052;2023-04-08T03:14:22;96164.16;;;14.51;51.43
58367;BME280;57745;42.524;12.052;2023-04-08T03:16:47;96166.41;;;14.61;51.13
58367;BME280;57745;42.524;12.052;2023-04-08T03:19:13;96159.28;;;14.36;51.94
58367;BME280;57745;42.524;12.052;2023-04-08T03:21:38;96161.53;;;14.65;50.77
58367;BME280;57745;42.524;12.052;2023-04-08T03:24:04;96156.75;;;14.33;51.99
58367;BME280;57745;42.524;12.052;2023-04-08T03:26:29;96146.09;;;14.35;51.89
58367;BME280;57745;42.524;12.052;2023-04-08T03:28:55;96140.34;;;14.51;51.45
58367;BME280;57745;42.524;12.052;2023-04-08T03:31:20;96137.03;;;14.56;51.19
58367;BME280;57745;42.524;12.052;2023-04-08T03:33:46;96136.44;;;14.25;51.41
58367;BME280;57745;42.524;12.052;2023-04-08T03:36:11;96133.09;;;14.30;51.39
58367;BME280;57745;42.524;12.052;2023-04-08T03:38:37;96140.97;;;14.28;51.58
58367;BME280;57745;42.524;12.052;2023-04-08T03:41:02;96136.91;;;14.32;51.11
58367;BME280;57745;42.524;12.052;2023-04-08T03:43:28;96142.16;;;14.36;51.08
58367;BME280;57745;42.524;12.052;2023-04-08T03:45:54;96138.56;;;14.12;51.10
58367;BME280;57745;42.524;12.052;2023-04-08T03:48:20;96133.53;;;14.37;50.98
58367;BME280;57745;42.524;12.052;2023-04-08T03:50:45;96122.38;;;14.17;51.10
58367;BME280;57745;42.524;12.052;2023-04-08T03:53:11;96117.34;;;14.34;50.97
58367;BME280;57745;42.524;12.052;2023-04-08T03:55:37;96113.44;;;13.89;52.30
58367;BME280;57745;42.524;12.052;2023-04-08T03:58:03;96117.50;;;14.12;51.01
58367;BME280;57745;42.524;12.052;2023-04-08T04:00:28;96129.78;;;14.17;51.40
58367;BME280;57745;42.524;12.052;2023-04-08T04:02:54;96136.91;;;14.14;51.81
58367;BME280;57745;42.524;12.052;2023-04-08T04:05:20;96142.78;;;14.22;51.76
58367;BME280;57745;42.524;12.052;2023-04-08T04:07:46;96147.81;;;14.32;51.25
58367;BME280;57745;42.524;12.052;2023-04-08T04:10:11;96146.75;;;14.12;52.37
58367;BME280;57745;42.524;12.052;2023-04-08T04:12:36;96144.78;;;14.12;52.85
58367;BME280;57745;42.524;12.052;2023-04-08T04:15:02;96139.78;;;14.20;52.92
58367;BME280;57745;42.524;12.052;2023-04-08T04:17:28;96135.69;;;14.24;52.54
58367;BME280;57745;42.524;12.052;2023-04-08T04:19:53;96137.94;;;14.26;52.52
58367;BME280;57745;42.524;12.052;2023-04-08T04:22:19;96130.09;;;14.10;52.95
58367;BME280;57745;42.524;12.052;2023-04-08T04:24:48;96132.81;;;14.00;53.17
58367;BME280;57745;42.524;12.052;2023-04-08T04:27:14;96122.50;;;14.23;52.86
58367;BME280;57745;42.524;12.052;2023-04-08T04:29:42;96129.75;;;14.35;52.50
58367;BME280;57745;42.524;12.052;2023-04-08T04:32:07;96135.50;;;14.37;52.59
58367;BME280;57745;42.524;12.052;2023-04-08T04:34:33;96138.88;;;14.41;52.40
58367;BME280;57745;42.524;12.052;2023-04-08T04:36:58;96137.06;;;14.11;52.96
58367;BME280;57745;42.524;12.052;2023-04-08T04:39:24;96150.53;;;14.32;52.80
58367;BME280;57745;42.524;12.052;2023-04-08T04:41:49;96157.06;;;14.44;52.51
58367;BME280;57745;42.524;12.052;2023-04-08T04:44:15;96147.94;;;14.47;52.11
58367;BME280;57745;42.524;12.052;2023-04-08T04:46:41;96143.72;;;14.19;52.81
58367;BME280;57745;42.524;12.052;2023-04-08T04:49:06;96150.22;;;14.40;52.03
58367;BME280;57745;42.524;12.052;2023-04-08T04:51:31;96141.88;;;14.25;52.75
58367;BME280;57745;42.524;12.052;2023-04-08T04:54:00;96145.09;;;14.14;52.25
58367;BME280;57745;42.524;12.052;2023-04-08T04:56:25;96136.63;;;14.03;52.90
58367;BME280;57745;42.524;12.052;2023-04-08T04:58:51;96131.63;;;14.01;52.69
58367;BME280;57745;42.524;12.052;2023-04-08T05:01:16;96134.47;;;14.25;52.84
58367;BME280;57745;42.524;12.052;2023-04-08T05:03:42;96133.25;;;14.26;52.79
58367;BME280;57745;42.524;12.052;2023-04-08T05:06:07;96139.75;;;14.38;52.18
58367;BME280;57745;42.524;12.052;2023-04-08T05:08:33;96137.19;;;14.44;52.26
58367;BME280;57745;42.524;12.052;2023-04-08T05:10:58;96131.16;;;14.03;53.57
58367;BME280;57745;42.524;12.052;2023-04-08T05:13:27;96137.94;;;14.26;52.83
58367;BME280;57745;42.524;12.052;2023-04-08T05:15:52;96148.84;;;14.35;52.53
58367;BME280;57745;42.524;12.052;2023-04-08T05:18:18;96151.56;;;14.35;52.89
58367;BME280;57745;42.524;12.052;2023-04-08T05:20:44;96146.72;;;14.39;52.65
58367;BME280;57745;42.524;12.052;2023-04-08T05:23:10;96143.69;;;14.37;53.18
58367;BME280;57745;42.524;12.052;2023-04-08T05:25:35;96145.53;;;14.13;52.92
58367;BME280;57745;42.524;12.052;2023-04-08T05:28:01;96144.34;;;13.86;53.17
58367;BME280;57745;42.524;12.052;2023-04-08T05:30:26;96126.78;;;13.96;53.21
58367;BME280;57745;42.524;12.052;2023-04-08T05:32:52;96109.97;;;13.80;53.02
58367;BME280;57745;42.524;12.052;2023-04-08T05:35:17;96104.34;;;14.11;52.39
58367;BME280;57745;42.524;12.052;2023-04-08T05:37:43;96096.50;;;13.94;53.10
58367;BME280;57745;42.524;12.052;2023-04-08T05:40:08;96098.59;;;13.99;52.33
58367;BME280;57745;42.524;12.052;2023-04-08T05:42:34;96093.16;;;14.09;53.10
58367;BME280;57745;42.524;12.052;2023-04-08T05:45:00;96090.97;;;14.22;51.85
58367;BME280;57745;42.524;12.052;2023-04-08T05:47:25;96089.75;;;14.32;52.07
58367;BME280;57745;42.524;12.052;2023-04-08T05:49:51;96074.50;;;13.98;52.32
58367;BME280;57745;42.524;12.052;2023-04-08T05:52:17;96076.97;;;13.96;52.41
58367;BME280;57745;42.524;12.052;2023-04-08T05:54:42;96072.34;;;14.29;51.75
58367;BME280;57745;42.524;12.052;2023-04-08T05:57:08;96071.34;;;13.99;52.28
58367;BME280;57745;42.524;12.052;2023-04-08T05:59:34;96071.81;;;13.80;52.55
58367;BME280;57745;42.524;12.052;2023-04-08T06:02:00;96082.88;;;13.76;52.84
58367;BME280;57745;42.524;12.052;2023-04-08T06:04:25;96083.63;;;13.86;52.53
58367;BME280;57745;42.524;12.052;2023-04-08T06:06:51;96103.00;;;13.88;52.43
58367;BME280;57745;42.524;12.052;2023-04-08T06:09:16;96104.38;;;13.83;52.18
58367;BME280;57745;42.524;12.052;2023-04-08T06:11:41;96109.50;;;13.90;52.25
58367;BME280;57745;42.524;12.052;2023-04-08T06:14:07;96120.56;;;14.05;52.23
58367;BME280;57745;42.524;12.052;2023-04-08T06:16:32;96127.38;;;14.19;51.63
58367;BME280;57745;42.524;12.052;2023-04-08T06:18:58;96142.22;;;13.99;52.26
58367;BME280;57745;42.524;12.052;2023-04-08T06:21:23;96145.25;;;14.01;52.43
58367;BME280;57745;42.524;12.052;2023-04-08T06:23:49;96141.34;;;13.84;53.05
58367;BME280;57745;42.524;12.052;2023-04-08T06:26:14;96148.75;;;13.93;52.54
58367;BME280;57745;42.524;12.052;2023-04-08T06:28:40;96144.34;;;13.77;52.76
58367;BME280;57745;42.524;12.052;2023-04-08T06:31:06;96135.88;;;13.84;53.29
58367;BME280;57745;42.524;12.052;2023-04-08T06:33:31;96139.19;;;13.97;52.20
58367;BME280;57745;42.524;12.052;2023-04-08T06:36:03;96127.53;;;13.97;52.28
58367;BME280;57745;42.524;12.052;2023-04-08T06:38:29;96127.69;;;13.93;52.72
58367;BME280;57745;42.524;12.052;2023-04-08T06:41:00;96126.31;;;13.98;52.37
58367;BME280;57745;42.524;12.052;2023-04-08T06:43:25;96134.34;;;13.92;52.67
58367;BME280;57745;42.524;12.052;2023-04-08T06:45:51;96127.09;;;13.89;52.89
58367;BME280;57745;42.524;12.052;2023-04-08T06:48:17;96133.13;;;14.02;52.27
58367;BME280;57745;42.524;12.052;2023-04-08T06:50:43;96130.41;;;14.02;52.82
58367;BME280;57745;42.524;12.052;2023-04-08T06:53:08;96128.44;;;13.76;53.30
58367;BME280;57745;42.524;12.052;2023-04-08T06:55:33;96130.25;;;14.06;52.62
58367;BME280;57745;42.524;12.052;2023-04-08T06:57:59;96133.28;;;13.90;53.15
58367;BME280;57745;42.524;12.052;2023-04-08T07:00:26;96135.56;;;14.00;52.94
58367;BME280;57745;42.524;12.052;2023-04-08T07:02:51;96142.53;;;14.01;52.70
58367;BME280;57745;42.524;12.052;2023-04-08T07:05:17;96132.81;;;14.10;52.35
58367;BME280;57745;42.524;12.052;2023-04-08T07:07:42;96137.84;;;13.93;52.84
58367;BME280;57745;42.524;12.052;2023-04-08T07:10:08;96136.47;;;13.88;52.93
58367;BME280;57745;42.524;12.052;2023-04-08T07:12:34;96138.13;;;14.04;52.38
58367;BME280;57745;42.524;12.052;2023-04-08T07:14:59;96147.09;;;13.95;52.57
58367;BME280;57745;42.524;12.052;2023-04-08T07:17:25;96149.50;;;13.93;52.80
58367;BME280;57745;42.524;12.052;2023-04-08T07:19:50;96143.75;;;13.82;53.14
58367;BME280;57745;42.524;12.052;2023-04-08T07:22:16;96150.09;;;13.97;52.45
58367;BME280;57745;42.524;12.052;2023-04-08T07:24:42;96145.88;;;13.96;52.42
58367;BME280;57745;42.524;12.052;2023-04-08T07:27:09;96149.50;;;14.02;52.44
58367;BME280;57745;42.524;12.052;2023-04-08T07:29:35;96147.09;;;13.95;52.26
58367;BME280;57745;42.524;12.052;2023-04-08T07:32:01;96150.88;;;14.07;52.27
58367;BME280;57745;42.524;12.052;2023-04-08T07:34:26;96141.94;;;14.07;52.31
58367;BME280;57745;42.524;12.052;2023-04-08T07:36:51;96144.03;;;14.12;52.18
58367;BME280;57745;42.524;12.052;2023-04-08T07:39:17;96147.38;;;13.79;53.14
58367;BME280;57745;42.524;12.052;2023-04-08T07:41:42;96151.91;;;13.91;52.70
58367;BME280;57745;42.524;12.052;2023-04-08T07:44:08;96150.41;;;13.90;52.90
58367;BME280;57745;42.524;12.052;2023-04-08T07:46:37;96157.06;;;14.08;52.73
58367;BME280;57745;42.524;12.052;2023-04-08T07:49:03;96156.91;;;14.02;53.16
58367;BME280;57745;42.524;12.052;2023-04-08T07:51:28;96162.69;;;14.04;52.67
58367;BME280;57745;42.524;12.052;2023-04-08T07:53:54;96158.56;;;13.99;52.69
58367;BME280;57745;42.524;12.052;2023-04-08T07:56:19;96169.66;;;14.05;53.13
58367;BME280;57745;42.524;12.052;2023-04-08T07:58:46;96173.72;;;13.91;53.44
58367;BME280;57745;42.524;12.052;2023-04-08T08:01:22;96174.63;;;14.25;52.54
58367;BME280;57745;42.524;12.052;2023-04-08T08:03:48;96172.38;;;13.96;52.73
58367;BME280;57745;42.524;12.052;2023-04-08T08:06:14;96176.75;;;13.93;53.00
58367;BME280;57745;42.524;12.052;2023-04-08T08:08:39;96183.13;;;13.90;53.23
58367;BME280;57745;42.524;12.052;2023-04-08T08:11:05;96183.56;;;14.16;52.68
58367;BME280;57745;42.524;12.052;2023-04-08T08:13:32;96177.97;;;13.83;53.23
58367;BME280;57745;42.524;12.052;2023-04-08T08:15:57;96181.91;;;14.00;53.33
58367;BME280;57745;42.524;12.052;2023-04-08T08:18:22;96195.38;;;14.13;53.06
58367;BME280;57745;42.524;12.052;2023-04-08T08:20:48;96192.22;;;14.15;52.91
58367;BME280;57745;42.524;12.052;2023-04-08T08:23:13;96189.50;;;14.06;53.55
58367;BME280;57745;42.524;12.052;2023-04-08T08:25:39;96190.69;;;14.23;52.78
58367;BME280;57745;42.524;12.052;2023-04-08T08:28:05;96187.66;;;14.12;53.34
58367;BME280;57745;42.524;12.052;2023-04-08T08:30:30;96193.41;;;13.86;54.15
58367;BME280;57745;42.524;12.052;2023-04-08T08:32:56;96194.88;;;13.60;54.79
58367;BME280;57745;42.524;12.052;2023-04-08T08:35:23;96202.19;;;13.99;53.54
58367;BME280;57745;42.524;12.052;2023-04-08T08:37:49;96199.78;;;13.92;53.58
58367;BME280;57745;42.524;12.052;2023-04-08T08:40:14;96201.13;;;13.88;53.51
58367;BME280;57745;42.524;12.052;2023-04-08T08:42:42;96207.66;;;13.99;53.11
58367;BME280;57745;42.524;12.052;2023-04-08T08:45:14;96209.47;;;13.93;53.45
58367;BME280;57745;42.524;12.052;2023-04-08T08:47:40;96213.09;;;13.99;52.95
58367;BME280;57745;42.524;12.052;2023-04-08T08:50:05;96211.00;;;13.94;53.53
58367;BME280;57745;42.524;12.052;2023-04-08T08:52:31;96214.31;;;13.98;52.98
58367;BME280;57745;42.524;12.052;2023-04-08T08:54:58;96221.59;;;13.83;53.42
58367;BME280;57745;42.524;12.052;2023-04-08T08:57:23;96222.22;;;14.06;52.90
58367;BME280;57745;42.524;12.052;2023-04-08T08:59:49;96231.16;;;14.06;52.80
58367;BME280;57745;42.524;12.052;2023-04-08T09:02:29;96224.94;;;13.96;52.95
58367;BME280;57745;42.524;12.052;2023-04-08T09:05:02;96231.47;;;14.08;53.00
58367;BME280;57745;42.524;12.052;2023-04-08T09:07:30;96221.28;;;13.90;53.46
58367;BME280;57745;42.524;12.052;2023-04-08T09:09:57;96230.66;;;13.80;53.96
58367;BME280;57745;42.524;12.052;2023-04-08T09:12:23;96234.63;;;14.16;52.76
58367;BME280;57745;42.524;12.052;2023-04-08T09:14:50;96231.59;;;14.05;53.52
58367;BME280;57745;42.524;12.052;2023-04-08T09:17:31;96229.78;;;14.11;52.99
58367;BME280;57745;42.524;12.052;2023-04-08T09:20:11;96227.66;;;13.96;53.77
58367;BME280;57745;42.524;12.052;2023-04-08T09:23:06;96217.69;;;14.21;53.51
58367;BME280;57745;42.524;12.052;2023-04-08T09:25:32;96237.06;;;14.05;54.12
58367;BME280;57745;42.524;12.052;2023-04-08T09:27:58;96226.44;;;14.16;54.20
58367;BME280;57745;42.524;12.052;2023-04-08T09:30:25;96224.78;;;14.09;54.24
58367;BME280;57745;42.524;12.052;2023-04-08T09:32:56;96231.28;;;14.12;54.27
58367;BME280;57745;42.524;12.052;2023-04-08T09:35:23;96234.31;;;13.95;54.67
58367;BME280;57745;42.524;12.052;2023-04-08T09:37:49;96233.41;;;13.98;55.24
58367;BME280;57745;42.524;12.052;2023-04-08T09:40:15;96238.56;;;14.06;55.69
58367;BME280;57745;42.524;12.052;2023-04-08T09:42:46;96239.19;;;14.19;54.77
58367;BME280;57745;42.524;12.052;2023-04-08T09:45:16;96236.91;;;14.08;54.79
58367;BME280;57745;42.524;12.052;2023-04-08T09:47:55;96236.59;;;14.15;54.87
58367;BME280;57745;42.524;12.052;2023-04-08T09:50:25;96235.69;;;14.27;54.37
58367;BME280;57745;42.524;12.052;2023-04-08T09:52:56;96243.72;;;14.22;54.72
58367;BME280;57745;42.524;12.052;2023-04-08T09:55:29;96237.03;;;14.23;54.85
58367;BME280;57745;42.524;12.052;2023-04-08T10:00:54;96237.97;;;14.29;54.50
58367;BME280;57745;42.524;12.052;2023-04-08T10:03:25;96240.09;;;14.25;54.57
58367;BME280;57745;42.524;12.052;2023-04-08T10:05:53;96238.13;;;14.16;55.10
58367;BME280;57745;42.524;12.052;2023-04-08T10:08:18;96238.09;;;13.98;55.86
58367;BME280;57745;42.524;12.052;2023-04-08T10:10:45;96232.63;;;13.98;55.46
58367;BME280;57745;42.524;12.052;2023-04-08T10:13:11;96240.53;;;14.14;54.85
58367;BME280;57745;42.524;12.052;2023-04-08T10:15:37;96241.19;;;14.46;53.70
58367;BME280;57745;42.524;12.052;2023-04-08T10:23:05;96242.53;;;14.41;54.47
58367;BME280;57745;42.524;12.052;2023-04-08T10:25:36;96247.97;;;14.23;55.23
58367;BME280;57745;42.524;12.052;2023-04-08T10:33:15;96246.59;;;14.36;54.47
58367;BME280;57745;42.524;12.052;2023-04-08T10:35:47;96248.13;;;14.47;54.31
58367;BME280;57745;42.524;12.052;2023-04-08T10:38:13;96243.72;;;14.31;54.94
58367;BME280;57745;42.524;12.052;2023-04-08T10:40:40;96236.75;;;14.30;54.62
58367;BME280;57745;42.524;12.052;2023-04-08T10:43:08;96233.72;;;14.19;55.03
58367;BME280;57745;42.524;12.052;2023-04-08T10:45:34;96238.72;;;14.38;54.11
58367;BME280;57745;42.524;12.052;2023-04-08T10:50:37;96234.66;;;14.43;54.86
58367;BME280;57745;42.524;12.052;2023-04-08T10:53:04;96231.94;;;14.43;55.40
58367;BME280;57745;42.524;12.052;2023-04-08T10:55:30;96235.56;;;14.40;55.70
58367;BME280;57745;42.524;12.052;2023-04-08T10:58:06;96228.56;;;14.48;55.38
58367;BME280;57745;42.524;12.052;2023-04-08T11:00:37;96220.53;;;14.63;54.89
58367;BME280;57745;42.524;12.052;2023-04-08T11:03:05;96219.34;;;14.55;54.58
58367;BME280;57745;42.524;12.052;2023-04-08T11:05:31;96228.59;;;14.57;54.59
58367;BME280;57745;42.524;12.052;2023-04-08T11:07:57;96220.69;;;14.50;55.16
58367;BME280;57745;42.524;12.052;2023-04-08T11:10:24;96221.75;;;14.71;54.39
58367;BME280;57745;42.524;12.052;2023-04-08T11:12:49;96219.00;;;14.80;54.63
58367;BME280;57745;42.524;12.052;2023-04-08T11:15:16;96220.66;;;14.78;54.94
58367;BME280;57745;42.524;12.052;2023-04-08T11:17:41;96217.47;;;14.79;54.75
58367;BME280;57745;42.524;12.052;2023-04-08T11:20:08;96227.50;;;14.64;55.90
58367;BME280;57745;42.524;12.052;2023-04-08T11:22:34;96234.78;;;14.67;55.36
58367;BME280;57745;42.524;12.052;2023-04-08T11:25:00;96225.31;;;14.86;54.92
58367;BME280;57745;42.524;12.052;2023-04-08T11:27:26;96223.34;;;14.87;54.74
58367;BME280;57745;42.524;12.052;2023-04-08T11:29:54;96217.00;;;14.71;55.72
58367;BME280;57745;42.524;12.052;2023-04-08T11:32:21;96216.22;;;14.89;54.72
58367;BME280;57745;42.524;12.052;2023-04-08T11:34:48;96221.69;;;14.89;53.59
58367;BME280;57745;42.524;12.052;2023-04-08T11:37:14;96217.59;;;14.85;54.47
58367;BME280;57745;42.524;12.052;2023-04-08T11:39:43;96219.00;;;14.80;52.80
58367;BME280;57745;42.524;12.052;2023-04-08T11:42:09;96214.00;;;14.69;53.86
58367;BME280;57745;42.524;12.052;2023-04-08T11:44:50;96223.69;;;14.80;53.57
58367;BME280;57745;42.524;12.052;2023-04-08T11:47:15;96215.50;;;14.80;53.49
58367;BME280;57745;42.524;12.052;2023-04-08T11:49:44;96219.41;;;14.88;53.13
58367;BME280;57745;42.524;12.052;2023-04-08T11:52:10;96225.50;;;14.73;53.19
58367;BME280;57745;42.524;12.052;2023-04-08T11:54:40;96217.66;;;14.57;54.07
58367;BME280;57745;42.524;12.052;2023-04-08T11:57:06;96219.16;;;14.67;53.01
58367;BME280;57745;42.524;12.052;2023-04-08T11:59:34;96222.31;;;14.75;53.74
58367;BME280;57745;42.524;12.052;2023-04-08T12:02:01;96216.72;;;14.79;53.36
58367;BME280;57745;42.524;12.052;2023-04-08T12:04:26;96211.84;;;14.73;53.55
58367;BME280;57745;42.524;12.052;2023-04-08T12:06:52;96216.38;;;14.86;53.54
58367;BME280;57745;42.524;12.052;2023-04-08T12:09:17;96216.56;;;14.73;53.35
58367;BME280;57745;42.524;12.052;2023-04-08T12:11:43;96209.88;;;14.74;53.07
58367;BME280;57745;42.524;12.052;2023-04-08T12:14:08;96211.91;;;14.55;53.66
58367;BME280;57745;42.524;12.052;2023-04-08T12:16:34;96205.63;;;14.73;53.11
58367;BME280;57745;42.524;12.052;2023-04-08T12:19:00;96198.53;;;14.66;53.07
58367;BME280;57745;42.524;12.052;2023-04-08T12:21:25;96195.66;;;14.61;52.79
58367;BME280;57745;42.524;12.052;2023-04-08T12:23:52;96187.00;;;14.71;52.63
58367;BME280;57745;42.524;12.052;2023-04-08T12:26:17;96198.97;;;14.74;52.51
58367;BME280;57745;42.524;12.052;2023-04-08T12:28:44;96185.47;;;14.80;52.43
58367;BME280;57745;42.524;12.052;2023-04-08T12:31:10;96179.25;;;14.79;52.74
58367;BME280;57745;42.524;12.052;2023-04-08T12:33:35;96177.75;;;14.78;52.24
58367;BME280;57745;42.524;12.052;2023-04-08T12:36:01;96182.84;;;14.94;52.03
58367;BME280;57745;42.524;12.052;2023-04-08T12:38:26;96178.34;;;14.82;51.50
58367;BME280;57745;42.524;12.052;2023-04-08T12:40:52;96170.59;;;14.81;52.08
58367;BME280;57745;42.524;12.052;2023-04-08T12:43:18;96177.59;;;14.82;51.58
58367;BME280;57745;42.524;12.052;2023-04-08T12:45:43;96173.03;;;14.79;51.32
58367;BME280;57745;42.524;12.052;2023-04-08T12:48:09;96174.56;;;14.80;51.28
58367;BME280;57745;42.524;12.052;2023-04-08T12:50:34;96182.41;;;14.87;50.67
58367;BME280;57745;42.524;12.052;2023-04-08T12:53:00;96165.91;;;14.72;51.26
58367;BME280;57745;42.524;12.052;2023-04-08T12:55:25;96171.84;;;14.70;50.59
58367;BME280;57745;42.524;12.052;2023-04-08T12:57:51;96168.78;;;14.78;50.28
58367;BME280;57745;42.524;12.052;2023-04-08T13:00:17;96169.41;;;14.82;50.18
58367;BME280;57745;42.524;12.052;2023-04-08T13:02:44;96172.88;;;14.82;50.31
58367;BME280;57745;42.524;12.052;2023-04-08T13:05:09;96171.38;;;14.81;50.39